createdAt,value
2022-11-20T00:00:15.796Z,-11385.81
2022-11-20T00:03:21.916Z,-11381.31
2022-11-20T00:06:29.562Z,-11380.59
2022-11-20T00:09:35.984Z,-11382.00
2022-11-20T00:12:42.513Z,-11383.28
2022-11-20T00:15:50.277Z,-11385.81
2022-11-20T00:18:56.977Z,-11385.94
2022-11-20T00:22:03.387Z,-11387.91
2022-11-20T00:25:10.131Z,-11386.50
2022-11-20T00:28:16.304Z,-11387.34
2022-11-20T00:31:24.161Z,-11389.03
2022-11-20T00:34:30.229Z,-11382.28
2022-11-20T00:37:36.460Z,-11384.13
2022-11-20T00:40:42.602Z,-11377.91
2022-11-20T00:43:48.661Z,-11383.56
2022-11-20T00:46:56.045Z,-11383.00
2022-11-20T00:50:02.142Z,-11387.34
2022-11-20T00:53:08.111Z,-11384.53
2022-11-20T00:56:16.481Z,-11381.59
2022-11-20T00:59:23.037Z,-11386.22
2022-11-20T01:02:30.656Z,-11385.09
2022-11-20T01:05:37.500Z,-11383.41
2022-11-20T01:08:44.208Z,-11383.84
2022-11-20T01:11:50.994Z,-11387.91
2022-11-20T01:14:57.536Z,-11383.69
2022-11-20T01:18:06.317Z,-11379.31
2022-11-20T01:21:14.681Z,-11380.59
2022-11-20T01:24:23.299Z,-11381.72
2022-11-20T01:27:29.324Z,-11378.63
2022-11-20T01:30:35.443Z,-11377.22
2022-11-20T01:33:44.132Z,-11377.78
2022-11-20T01:36:51.344Z,-11376.66
2022-11-20T01:39:57.786Z,-11377.22
2022-11-20T01:43:26.180Z,-11377.50
2022-11-20T01:46:33.651Z,-11377.50
2022-11-20T01:49:44.915Z,-11380.19
2022-11-20T01:52:55.469Z,-11380.88
2022-11-20T01:56:03.908Z,-11384.53
2022-11-20T01:59:12.867Z,-11380.88
2022-11-20T02:02:19.231Z,-11382.84
2022-11-20T02:05:34.027Z,-11383.13
2022-11-20T02:08:41.418Z,-11381.59
2022-11-20T02:11:40.474Z,-11379.19
2022-11-20T02:14:45.528Z,-11384.81
2022-11-20T02:17:51.494Z,-11378.75
2022-11-20T02:21:09.567Z,-11385.38
2022-11-20T02:24:19.661Z,-11376.94
2022-11-20T02:27:25.776Z,-11379.19
2022-11-20T02:30:32.107Z,-11377.22
2022-11-20T02:33:38.590Z,-11380.19
2022-11-20T02:36:45.784Z,-11380.19
2022-11-20T02:39:54.431Z,-11382.72
2022-11-20T02:43:00.730Z,-11375.66
2022-11-20T02:46:09.620Z,-11373.56
2022-11-20T02:49:15.769Z,-11370.59
2022-11-20T02:52:21.963Z,-11368.19
2022-11-20T02:55:29.729Z,-11370.72
2022-11-20T02:58:35.981Z,-11366.22
2022-11-20T03:01:42.277Z,-11368.19
2022-11-20T03:04:48.209Z,-11368.75
2022-11-20T03:07:54.474Z,-11367.78
2022-11-20T03:11:07.306Z,-11367.34
2022-11-20T03:14:13.443Z,-11367.22
2022-11-20T03:17:19.839Z,-11371.84
2022-11-20T03:20:26.341Z,-11372.16
2022-11-20T03:23:33.684Z,-11372.72
2022-11-20T03:26:41.848Z,-11372.16
2022-11-20T03:29:47.841Z,-11364.53
2022-11-20T03:32:55.992Z,-11367.22
2022-11-20T03:36:04.488Z,-11368.47
2022-11-20T03:39:11.639Z,-11369.59
2022-11-20T03:42:36.330Z,-11371.72
2022-11-20T03:45:42.389Z,-11370.72
2022-11-20T03:48:51.661Z,-11365.94
2022-11-20T03:51:58.397Z,-11368.91
2022-11-20T03:55:05.016Z,-11368.63
2022-11-20T03:58:14.547Z,-11363.41
2022-11-20T04:01:22.795Z,-11362.56
2022-11-20T04:04:29.054Z,-11361.72
2022-11-20T04:07:36.827Z,-11362.00
2022-11-20T04:10:43.176Z,-11360.88
2022-11-20T04:13:53.405Z,-11362.00
2022-11-20T04:16:59.454Z,-11362.28
2022-11-20T04:20:06.579Z,-11357.22
2022-11-20T04:23:13.089Z,-11361.84
2022-11-20T04:26:19.442Z,-11360.03
2022-11-20T04:29:26.785Z,-11361.28
2022-11-20T04:32:32.749Z,-11362.00
2022-11-20T04:35:39.541Z,-11358.63
2022-11-20T04:38:45.963Z,-11362.13
2022-11-20T04:42:12.475Z,-11359.47
2022-11-20T04:45:20.177Z,-11359.47
2022-11-20T04:48:28.100Z,-11360.31
2022-11-20T04:51:34.281Z,-11360.03
2022-11-20T04:54:40.444Z,-11359.59
2022-11-20T04:57:46.512Z,-11357.63
2022-11-20T05:00:54.182Z,-11363.41
2022-11-20T05:04:00.503Z,-11364.97
2022-11-20T05:07:06.580Z,-11359.75
2022-11-20T05:10:12.923Z,-11357.63
2022-11-20T05:13:19.283Z,-11355.22
2022-11-20T05:16:27.740Z,-11356.66
2022-11-20T05:19:34.044Z,-11353.81
2022-11-20T05:22:40.345Z,-11353.13
2022-11-20T05:25:46.313Z,-11355.50
2022-11-20T05:28:53.086Z,-11355.38
2022-11-20T05:32:00.821Z,-11354.53
2022-11-20T05:35:07.674Z,-11354.81
2022-11-20T05:38:13.860Z,-11354.09
2022-11-20T05:41:21.780Z,-11353.81
2022-11-20T05:44:28.367Z,-11355.78
2022-11-20T05:47:36.708Z,-11354.09
2022-11-20T05:50:43.015Z,-11356.94
2022-11-20T05:53:49.132Z,-11357.78
2022-11-20T05:56:55.565Z,-11356.94
2022-11-20T06:00:01.705Z,-11361.84
2022-11-20T06:03:09.613Z,-11355.22
2022-11-20T06:06:17.248Z,-11355.22
2022-11-20T06:09:23.445Z,-11361.44
2022-11-20T06:12:29.801Z,-11360.72
2022-11-20T06:15:35.709Z,-11358.63
2022-11-20T06:18:43.349Z,-11359.87
2022-11-20T06:21:50.429Z,-11362.28
2022-11-20T06:24:56.387Z,-11358.63
2022-11-20T06:28:02.805Z,-11361.72
2022-11-20T06:31:09.853Z,-11358.91
2022-11-20T06:34:17.419Z,-11361.44
2022-11-20T06:37:23.584Z,-11361.16
2022-11-20T06:40:29.912Z,-11361.84
2022-11-20T06:43:35.983Z,-11359.03
2022-11-20T06:46:42.065Z,-11364.09
2022-11-20T06:49:49.505Z,-11363.97
2022-11-20T06:52:55.434Z,-11363.69
2022-11-20T06:56:01.659Z,-11366.50
2022-11-20T06:59:08.293Z,-11365.81
2022-11-20T07:02:14.394Z,-11367.78
2022-11-20T07:05:21.759Z,-11367.06
2022-11-20T07:08:28.060Z,-11363.97
2022-11-20T07:11:34.088Z,-11367.63
2022-11-20T07:14:40.380Z,-11366.22
2022-11-20T07:17:47.024Z,-11366.22
2022-11-20T07:20:54.389Z,-11368.34
2022-11-20T07:24:00.656Z,-11366.78
2022-11-20T07:27:07.464Z,-11368.63
2022-11-20T07:30:15.269Z,-11362.84
2022-11-20T07:33:22.197Z,-11365.66
2022-11-20T07:36:30.177Z,-11364.81
2022-11-20T07:39:36.404Z,-11374.69
2022-11-20T07:42:50.571Z,-11375.53
2022-11-20T07:45:58.320Z,-11369.88
2022-11-20T07:49:04.393Z,-11373.84
2022-11-20T07:52:11.723Z,-11370.59
2022-11-20T07:55:18.460Z,-11371.28
2022-11-20T07:58:24.507Z,-11367.34
2022-11-20T08:01:30.977Z,-11369.59
2022-11-20T08:04:36.852Z,-11367.91
2022-11-20T08:07:45.780Z,-11370.44
2022-11-20T08:10:51.892Z,-11370.44
2022-11-20T08:14:15.411Z,-11371.00
2022-11-20T08:17:21.509Z,-11373.00
2022-11-20T08:20:28.087Z,-11379.91
2022-11-20T08:23:35.907Z,-11377.22
2022-11-20T08:26:42.888Z,-11374.69
2022-11-20T08:29:48.931Z,-11379.91
2022-11-20T08:32:55.784Z,-11380.31
2022-11-20T08:36:03.101Z,-11376.38
2022-11-20T08:39:13.517Z,-11377.22
2022-11-20T08:42:19.616Z,-11376.66
2022-11-20T08:45:29.708Z,-11368.34
2022-11-20T08:48:40.073Z,-11373.28
2022-11-20T08:51:46.236Z,-11377.34
2022-11-20T08:54:53.791Z,-11384.13
2022-11-20T08:58:00.233Z,-11378.63
2022-11-20T09:01:07.583Z,-11373.84
2022-11-20T09:04:15.486Z,-11371.84
2022-11-20T09:07:22.196Z,-11373.56
2022-11-20T09:10:30.233Z,-11372.84
2022-11-20T09:13:38.316Z,-11373.00
2022-11-20T09:16:44.962Z,-11377.22
2022-11-20T09:19:51.034Z,-11372.16
2022-11-20T09:22:57.399Z,-11373.41
2022-11-20T09:26:06.545Z,-11374.69
2022-11-20T09:29:12.945Z,-11373.00
2022-11-20T09:32:19.400Z,-11376.09
2022-11-20T09:35:26.021Z,-11373.13
2022-11-20T09:38:32.344Z,-11374.97
2022-11-20T09:41:56.373Z,-11380.47
2022-11-20T09:45:17.093Z,-11383.13
2022-11-20T09:48:36.482Z,-11385.09
2022-11-20T09:51:52.825Z,-11386.78
2022-11-20T09:55:00.148Z,-11389.19
2022-11-20T09:58:15.369Z,-11399.19
2022-11-20T10:01:23.511Z,-11393.00
2022-11-20T10:04:36.707Z,-11386.09
2022-11-20T10:07:50.074Z,-11387.91
2022-11-20T10:11:02.726Z,-11380.31
2022-11-20T10:14:22.835Z,-11383.41
2022-11-20T10:17:49.309Z,-11383.28
2022-11-20T10:21:05.393Z,-11383.84
2022-11-20T10:24:45.783Z,-11385.25
2022-11-20T10:28:17.573Z,-11382.00
2022-11-20T10:31:34.216Z,-11380.19
2022-11-20T10:34:51.206Z,-11383.84
2022-11-20T10:38:01.854Z,-11383.97
2022-11-20T10:41:28.172Z,-11380.47
2022-11-20T10:44:56.799Z,-11377.22
2022-11-20T10:48:15.370Z,-11381.44
2022-11-20T10:51:33.502Z,-11380.31
2022-11-20T10:54:49.079Z,-11375.09
2022-11-20T10:58:02.938Z,-11378.06
2022-11-20T11:01:17.434Z,-11372.44
2022-11-20T11:04:38.203Z,-11376.50
2022-11-20T11:07:44.737Z,-11375.66
2022-11-20T11:10:55.813Z,-11376.66
2022-11-20T11:14:08.348Z,-11380.59
2022-11-20T11:17:30.124Z,-11379.31
2022-11-20T11:20:38.249Z,-11377.63
2022-11-20T11:23:45.461Z,-11378.91
2022-11-20T11:26:58.562Z,-11374.97
2022-11-20T11:30:17.252Z,-11373.00
2022-11-20T11:33:25.541Z,-11373.84
2022-11-20T11:36:35.082Z,-11367.63
2022-11-20T11:39:44.877Z,-11373.28
2022-11-20T11:42:56.811Z,-11366.50
2022-11-20T11:46:02.429Z,-11368.19
2022-11-20T11:49:19.183Z,-11362.56
2022-11-20T11:52:28.803Z,-11359.47
2022-11-20T11:55:40.314Z,-11355.38
2022-11-20T11:58:49.467Z,-11356.22
2022-11-20T12:02:00.006Z,-11349.59
2022-11-20T12:05:18.957Z,-11350.03
2022-11-20T12:08:33.226Z,-11345.94
2022-11-20T12:11:46.493Z,-11346.22
2022-11-20T12:14:57.657Z,-11346.09
2022-11-20T12:18:04.360Z,-11349.03
2022-11-20T12:21:21.365Z,-11344.66
2022-11-20T12:24:49.814Z,-11344.97
2022-11-20T12:28:18.256Z,-11341.16
2022-11-20T12:31:52.292Z,-11340.59
2022-11-20T12:35:11.137Z,-11338.75
2022-11-20T12:38:37.733Z,-11345.09
2022-11-20T12:42:24.826Z,-11334.66
2022-11-20T12:45:53.551Z,-11335.50
2022-11-20T12:49:12.905Z,-11337.78
2022-11-20T12:52:33.170Z,-11340.03
2022-11-20T12:55:49.726Z,-11338.34
2022-11-20T12:59:10.931Z,-11341.84
2022-11-20T13:02:27.643Z,-11343.25
2022-11-20T13:05:46.547Z,-11344.25
2022-11-20T13:08:57.106Z,-11345.66
2022-11-20T13:12:11.055Z,-11348.75
2022-11-20T13:15:34.340Z,-11346.78
2022-11-20T13:18:43.638Z,-11347.34
2022-11-20T13:21:51.652Z,-11339.75
2022-11-20T13:24:58.241Z,-11340.88
2022-11-20T13:28:26.764Z,-11344.81
2022-11-20T13:31:36.996Z,-11340.03
2022-11-20T13:34:54.613Z,-11333.69
2022-11-20T13:38:07.414Z,-11339.59
2022-11-20T13:41:30.749Z,-11335.66
2022-11-20T13:44:40.400Z,-11332.13
2022-11-20T13:47:52.256Z,-11327.63
2022-11-20T13:51:26.479Z,-11330.16
2022-11-20T13:54:58.907Z,-11326.38
2022-11-20T13:58:38.285Z,-11323.13
2022-11-20T14:01:47.663Z,-11320.03
2022-11-20T14:04:58.973Z,-11318.75
2022-11-20T14:08:07.601Z,-11316.78
2022-11-20T14:11:19.763Z,-11312.56
2022-11-20T14:14:28.060Z,-11306.78
2022-11-20T14:17:37.634Z,-11315.38
2022-11-20T14:20:46.011Z,-11315.81
2022-11-20T14:23:55.600Z,-11307.91
2022-11-20T14:27:02.335Z,-11308.06
2022-11-20T14:30:16.485Z,-11311.28
2022-11-20T14:33:25.971Z,-11308.91
2022-11-20T14:36:33.944Z,-11307.50
2022-11-20T14:39:43.958Z,-11310.59
2022-11-20T14:42:50.286Z,-11310.31
2022-11-20T14:46:01.529Z,-11309.47
2022-11-20T14:49:08.172Z,-11311.72
2022-11-20T14:52:17.848Z,-11309.03
2022-11-20T14:55:32.807Z,-11296.66
2022-11-20T14:58:40.173Z,-11297.78
2022-11-20T15:01:58.139Z,-11299.19
2022-11-20T15:05:04.907Z,-11300.59
2022-11-20T15:08:14.591Z,-11296.66
2022-11-20T15:11:25.999Z,-11303.13
2022-11-20T15:14:33.674Z,-11306.22
2022-11-20T15:17:42.700Z,-11303.41
2022-11-20T15:20:50.255Z,-11305.53
2022-11-20T15:23:59.376Z,-11306.22
2022-11-20T15:27:05.617Z,-11309.59
2022-11-20T15:30:16.866Z,-11305.66
2022-11-20T15:33:22.969Z,-11310.03
2022-11-20T15:36:29.399Z,-11316.38
2022-11-20T15:39:36.857Z,-11317.78
2022-11-20T15:43:06.813Z,-11315.25
2022-11-20T15:46:18.794Z,-11310.88
2022-11-20T15:49:26.575Z,-11301.59
2022-11-20T15:52:45.425Z,-11311.72
2022-11-20T15:55:53.176Z,-11312.28
2022-11-20T15:58:59.577Z,-11321.72
2022-11-20T16:02:14.457Z,-11323.41
2022-11-20T16:05:25.321Z,-11325.09
2022-11-20T16:08:31.799Z,-11318.91
2022-11-20T16:11:39.631Z,-11323.41
2022-11-20T16:15:03.394Z,-11324.81
2022-11-20T16:18:12.684Z,-11320.59
2022-11-20T16:21:18.741Z,-11328.34
2022-11-20T16:24:25.472Z,-11313.13
2022-11-20T16:27:33.294Z,-11310.88
2022-11-20T16:30:39.815Z,-11312.72
2022-11-20T16:33:50.886Z,-11316.50
2022-11-20T16:36:56.895Z,-11314.69
2022-11-20T16:40:03.116Z,-11309.59
2022-11-20T16:43:12.426Z,-11316.09
2022-11-20T16:46:21.061Z,-11318.91
2022-11-20T16:49:27.150Z,-11315.53
2022-11-20T16:52:33.861Z,-11312.56
2022-11-20T16:55:40.287Z,-11314.69
2022-11-20T16:58:49.154Z,-11313.97
2022-11-20T17:01:55.086Z,-11309.19
2022-11-20T17:05:01.557Z,-11309.75
2022-11-20T17:08:07.714Z,-11307.63
2022-11-20T17:11:16.052Z,-11308.91
2022-11-20T17:14:23.524Z,-11307.78
2022-11-20T17:17:29.974Z,-11309.03
2022-11-20T17:20:36.343Z,-11310.03
2022-11-20T17:23:44.567Z,-11311.72
2022-11-20T17:26:51.037Z,-11312.84
2022-11-20T17:29:59.225Z,-11308.63
2022-11-20T17:33:05.749Z,-11307.22
2022-11-20T17:36:14.291Z,-11311.56
2022-11-20T17:39:20.720Z,-11309.03
2022-11-20T17:42:36.908Z,-11308.47
2022-11-20T17:45:45.595Z,-11307.34
2022-11-20T17:48:52.132Z,-11305.38
2022-11-20T17:51:58.280Z,-11309.47
2022-11-20T17:55:04.469Z,-11307.50
2022-11-20T17:58:09.702Z,-11308.34
2022-11-20T18:01:18.828Z,-11307.91
2022-11-20T18:04:25.698Z,-11305.09
2022-11-20T18:07:34.751Z,-11305.66
2022-11-20T18:10:43.476Z,-11304.13
2022-11-20T18:14:09.096Z,-11307.06
2022-11-20T18:17:17.051Z,-11301.72
2022-11-20T18:20:33.955Z,-11299.47
2022-11-20T18:23:42.729Z,-11296.66
2022-11-20T18:26:48.918Z,-11298.34
2022-11-20T18:29:55.489Z,-11301.88
2022-11-20T18:33:03.194Z,-11303.41
2022-11-20T18:36:13.137Z,-11295.38
2022-11-20T18:39:19.362Z,-11302.00
2022-11-20T18:42:42.945Z,-11300.31
2022-11-20T18:45:49.009Z,-11304.97
2022-11-20T18:48:56.533Z,-11303.56
2022-11-20T18:52:21.101Z,-11297.78
2022-11-20T18:55:27.318Z,-11300.03
2022-11-20T18:58:33.402Z,-11296.38
2022-11-20T19:01:39.765Z,-11298.91
2022-11-20T19:04:47.932Z,-11294.13
2022-11-20T19:07:54.512Z,-11293.97
2022-11-20T19:11:07.846Z,-11293.00
2022-11-20T19:14:14.378Z,-11297.06
2022-11-20T19:17:20.647Z,-11297.22
2022-11-20T19:20:28.266Z,-11295.81
2022-11-20T19:23:34.873Z,-11291.88
2022-11-20T19:26:41.369Z,-11296.78
2022-11-20T19:29:47.850Z,-11294.97
2022-11-20T19:32:54.373Z,-11295.53
2022-11-20T19:36:10.310Z,-11300.31
2022-11-20T19:39:17.398Z,-11295.81
2022-11-20T19:42:23.935Z,-11288.78
2022-11-20T19:45:30.873Z,-11296.09
2022-11-20T19:48:38.925Z,-11297.22
2022-11-20T19:51:51.170Z,-11296.66
2022-11-20T19:54:57.550Z,-11295.53
2022-11-20T19:58:04.294Z,-11300.88
2022-11-20T20:01:12.298Z,-11294.41
2022-11-20T20:04:19.101Z,-11299.06
2022-11-20T20:07:26.997Z,-11297.22
2022-11-20T20:10:33.281Z,-11293.41
2022-11-20T20:13:39.885Z,-11290.75
2022-11-20T20:16:46.320Z,-11279.34
2022-11-20T20:19:52.749Z,-11287.34
2022-11-20T20:23:00.127Z,-11285.69
2022-11-20T20:26:08.413Z,-11288.19
2022-11-20T20:29:14.672Z,-11281.44
2022-11-20T20:32:20.552Z,-11287.91
2022-11-20T20:35:26.766Z,-11291.59
2022-11-20T20:38:34.565Z,-11287.06
2022-11-20T20:41:41.141Z,-11285.97
2022-11-20T20:45:01.245Z,-11286.22
2022-11-20T20:48:07.821Z,-11277.78
2022-11-20T20:51:14.361Z,-11282.28
2022-11-20T20:54:22.251Z,-11287.06
2022-11-20T20:57:28.948Z,-11290.75
2022-11-20T21:00:35.444Z,-11285.81
2022-11-20T21:03:42.425Z,-11286.22
2022-11-20T21:06:48.768Z,-11289.63
2022-11-20T21:09:56.668Z,-11283.56
2022-11-20T21:13:02.807Z,-11277.50
2022-11-20T21:16:09.434Z,-11280.88
2022-11-20T21:19:16.341Z,-11283.69
2022-11-20T21:22:22.788Z,-11283.28
2022-11-20T21:25:30.109Z,-11273.44
2022-11-20T21:28:37.692Z,-11280.59
2022-11-20T21:31:44.258Z,-11279.47
2022-11-20T21:34:50.221Z,-11272.44
2022-11-20T21:37:56.162Z,-11282.16
2022-11-20T21:41:04.369Z,-11284.28
2022-11-20T21:47:40.607Z,-11288.47
2022-11-20T21:50:46.932Z,-11279.19
2022-11-20T21:53:54.822Z,-11275.13
2022-11-20T21:57:02.725Z,-11284.69
2022-11-20T22:00:20.907Z,-11285.69
2022-11-20T22:03:27.159Z,-11283.00
2022-11-20T22:06:35.715Z,-11278.63
2022-11-20T22:09:42.189Z,-11280.31
2022-11-20T22:12:49.789Z,-11273.72
2022-11-20T22:16:01.367Z,-11283.56
2022-11-20T22:19:08.723Z,-11282.56
2022-11-20T22:22:14.794Z,-11281.72
2022-11-20T22:25:20.897Z,-11279.91
2022-11-20T22:28:28.532Z,-11276.25
2022-11-20T22:31:35.036Z,-11282.56
2022-11-20T22:34:41.559Z,-11281.72
2022-11-20T22:37:50.163Z,-11276.66
2022-11-20T22:41:02.035Z,-11269.63
2022-11-20T22:44:09.914Z,-11264.28
2022-11-20T22:47:16.175Z,-11251.34
2022-11-20T22:50:22.431Z,-11254.44
2022-11-20T22:53:28.492Z,-11265.41
2022-11-20T22:56:34.891Z,-11266.69
2022-11-20T22:59:42.799Z,-11266.81
2022-11-20T23:02:49.108Z,-11260.06
2022-11-20T23:05:55.661Z,-11257.81
2022-11-20T23:09:02.409Z,-11257.66
2022-11-20T23:12:09.305Z,-11250.78
2022-11-20T23:15:16.941Z,-11257.81
2022-11-20T23:18:23.623Z,-11254.84
2022-11-20T23:21:30.073Z,-11256.97
2022-11-20T23:24:36.261Z,-11265.69
2022-11-20T23:27:42.494Z,-11271.19
2022-11-20T23:30:50.209Z,-11249.09
2022-11-20T23:33:57.043Z,-11249.37
2022-11-20T23:37:03.298Z,-11245.16
2022-11-20T23:40:10.388Z,-11246.69
2022-11-20T23:43:17.089Z,-11250.78
2022-11-20T23:46:24.542Z,-11247.97
2022-11-20T23:49:30.745Z,-11262.03
2022-11-20T23:52:36.992Z,-11261.59
2022-11-20T23:55:46.950Z,-11251.19
2022-11-20T23:58:53.523Z,-11258.94
